createdAt,value
2023-03-18T00:00:28.137Z,831.00
2023-03-18T00:01:28.149Z,832.00
2023-03-18T00:02:28.206Z,831.00
2023-03-18T00:03:28.213Z,827.00
2023-03-18T00:04:28.208Z,826.00
2023-03-18T00:05:28.229Z,824.00
2023-03-18T00:06:28.236Z,823.00
2023-03-18T00:07:28.268Z,821.00
2023-03-18T00:08:28.284Z,821.00
2023-03-18T00:09:28.315Z,821.00
2023-03-18T00:10:28.331Z,821.00
2023-03-18T00:11:28.358Z,823.00
2023-03-18T00:12:28.377Z,819.00
2023-03-18T00:13:28.407Z,820.00
2023-03-18T00:14:28.422Z,820.00
2023-03-18T00:15:28.434Z,823.00
2023-03-18T00:16:28.561Z,822.00
2023-03-18T00:17:28.469Z,821.00
2023-03-18T00:18:28.474Z,820.00
2023-03-18T00:19:28.485Z,824.00
2023-03-18T00:34:28.784Z,818.00
2023-03-18T00:35:28.764Z,817.00
2023-03-18T00:36:28.797Z,815.00
2023-03-18T00:37:28.823Z,816.00
2023-03-18T00:38:28.848Z,815.00
2023-03-18T00:39:28.868Z,810.00
2023-03-18T00:40:28.890Z,811.00
2023-03-18T00:41:28.927Z,810.00
2023-03-18T00:42:28.950Z,808.00
2023-03-18T00:43:28.957Z,807.00
2023-03-18T00:44:28.978Z,806.00
2023-03-18T00:45:28.996Z,807.00
2023-03-18T00:46:29.920Z,805.00
2023-03-18T00:47:29.036Z,805.00
2023-03-18T00:48:29.079Z,807.00
2023-03-18T00:49:29.087Z,802.00
2023-03-18T00:50:29.103Z,803.00
2023-03-18T00:51:29.120Z,799.00
2023-03-18T00:52:31.703Z,796.00
2023-03-18T00:53:29.114Z,797.00
2023-03-18T00:54:29.202Z,799.00
2023-03-18T00:55:29.076Z,799.00
2023-03-18T00:56:29.056Z,799.00
2023-03-18T00:57:29.035Z,802.00
2023-03-18T00:58:29.007Z,804.00
2023-03-18T00:59:28.978Z,802.00
2023-03-18T01:00:28.975Z,802.00
2023-03-18T01:01:28.941Z,801.00
2023-03-18T01:02:29.076Z,798.00
2023-03-18T01:03:28.916Z,797.00
2023-03-18T01:04:28.885Z,797.00
2023-03-18T01:05:28.893Z,798.00
2023-03-18T01:06:28.841Z,802.00
2023-03-18T01:07:28.821Z,799.00
2023-03-18T01:08:28.868Z,796.00
2023-03-18T01:09:28.777Z,795.00
2023-03-18T01:10:28.904Z,794.00
2023-03-18T01:11:28.748Z,795.00
2023-03-18T01:12:28.737Z,797.00
2023-03-18T01:13:28.702Z,796.00
2023-03-18T01:14:28.680Z,798.00
2023-03-18T01:15:28.664Z,797.00
2023-03-18T01:16:28.659Z,797.00
2023-03-18T01:17:28.611Z,798.00
2023-03-18T01:18:28.572Z,798.00
2023-03-18T01:19:28.560Z,796.00
2023-03-18T01:20:28.518Z,795.00
2023-03-18T01:21:28.552Z,794.00
2023-03-18T01:22:28.889Z,793.00
2023-03-18T01:23:28.445Z,795.00
2023-03-18T01:24:28.888Z,793.00
2023-03-18T01:25:28.413Z,792.00
2023-03-18T01:26:28.397Z,794.00
2023-03-18T01:27:28.372Z,791.00
2023-03-18T01:28:28.356Z,789.00
2023-03-18T01:29:28.340Z,789.00
2023-03-18T01:30:28.319Z,789.00
2023-03-18T01:31:28.309Z,788.00
2023-03-18T01:32:28.291Z,789.00
2023-03-18T01:33:28.268Z,791.00
2023-03-18T01:34:28.256Z,790.00
2023-03-18T01:35:28.228Z,786.00
2023-03-18T01:36:28.211Z,787.00
2023-03-18T01:37:28.203Z,786.00
2023-03-18T01:38:28.162Z,785.00
2023-03-18T01:39:28.147Z,785.00
2023-03-18T01:40:28.119Z,786.00
2023-03-18T01:41:28.108Z,784.00
2023-03-18T01:42:28.105Z,785.00
2023-03-18T01:43:28.100Z,787.00
2023-03-18T01:44:28.047Z,789.00
2023-03-18T01:45:28.064Z,790.00
2023-03-18T01:46:28.024Z,790.00
2023-03-18T01:47:28.004Z,787.00
2023-03-18T01:48:28.878Z,785.00
2023-03-18T01:49:27.977Z,783.00
2023-03-18T01:50:28.032Z,783.00
2023-03-18T01:51:27.940Z,782.00
2023-03-18T01:52:28.007Z,780.00
2023-03-18T01:53:27.905Z,779.00
2023-03-18T01:54:27.891Z,782.00
2023-03-18T01:55:27.890Z,780.00
2023-03-18T01:56:27.917Z,778.00
2023-03-18T01:57:27.911Z,778.00
2023-03-18T01:58:27.958Z,778.00
2023-03-18T01:59:27.968Z,778.00
2023-03-18T02:00:27.985Z,777.00
2023-03-18T02:01:28.117Z,777.00
2023-03-18T02:02:28.039Z,776.00
2023-03-18T02:03:28.082Z,775.00
2023-03-18T02:04:28.099Z,775.00
2023-03-18T02:05:28.139Z,773.00
2023-03-18T02:06:28.158Z,774.00
2023-03-18T02:07:28.190Z,773.00
2023-03-18T02:08:28.253Z,774.00
2023-03-18T02:09:28.227Z,776.00
2023-03-18T02:10:28.252Z,774.00
2023-03-18T02:11:28.292Z,774.00
2023-03-18T02:12:28.324Z,769.00
2023-03-18T02:13:28.337Z,770.00
2023-03-18T02:14:28.360Z,770.00
2023-03-18T02:15:28.516Z,769.00
2023-03-18T02:16:28.534Z,769.00
2023-03-18T02:17:28.442Z,770.00
2023-03-18T02:18:28.487Z,774.00
2023-03-18T02:19:28.510Z,777.00
2023-03-18T02:20:28.537Z,778.00
2023-03-18T02:21:28.607Z,778.00
2023-03-18T02:22:28.608Z,777.00
2023-03-18T02:23:28.628Z,773.00
2023-03-18T02:24:28.756Z,770.00
2023-03-18T02:25:28.721Z,769.00
2023-03-18T02:26:28.732Z,771.00
2023-03-18T02:27:28.763Z,769.00
2023-03-18T02:28:28.916Z,768.00
2023-03-18T02:29:28.815Z,771.00
2023-03-18T02:30:28.840Z,769.00
2023-03-18T02:31:28.882Z,765.00
2023-03-18T02:32:28.952Z,763.00
2023-03-18T02:33:28.958Z,762.00
2023-03-18T02:34:28.972Z,762.00
2023-03-18T02:35:29.072Z,762.00
2023-03-18T02:36:29.046Z,763.00
2023-03-18T02:37:29.024Z,762.00
2023-03-18T02:38:29.054Z,765.00
2023-03-18T02:39:29.078Z,764.00
2023-03-18T02:40:29.292Z,760.00
2023-03-18T02:41:29.131Z,761.00
2023-03-18T02:42:29.160Z,760.00
2023-03-18T02:43:29.178Z,759.00
2023-03-18T02:44:29.220Z,760.00
2023-03-18T02:45:29.229Z,759.00
2023-03-18T02:46:29.257Z,760.00
2023-03-18T02:47:29.280Z,757.00
2023-03-18T02:48:29.284Z,757.00
2023-03-18T02:49:29.315Z,756.00
2023-03-18T02:50:29.490Z,757.00
2023-03-18T02:51:29.375Z,758.00
2023-03-18T02:52:29.430Z,757.00
2023-03-18T02:53:29.426Z,756.00
2023-03-18T02:54:29.443Z,752.00
2023-03-18T02:55:29.462Z,750.00
2023-03-18T02:56:29.478Z,751.00
2023-03-18T02:57:29.630Z,751.00
2023-03-18T02:58:29.536Z,749.00
2023-03-18T02:59:29.582Z,750.00
2023-03-18T03:00:30.109Z,753.00
2023-03-18T03:01:29.683Z,750.00
2023-03-18T03:02:29.760Z,752.00
2023-03-18T03:03:29.736Z,753.00
2023-03-18T03:04:29.779Z,753.00
2023-03-18T03:05:29.743Z,753.00
2023-03-18T03:06:29.748Z,752.00
2023-03-18T03:07:30.453Z,751.00
2023-03-18T03:08:29.844Z,753.00
2023-03-18T03:09:29.870Z,753.00
2023-03-18T03:10:30.075Z,752.00
2023-03-18T03:11:29.928Z,752.00
2023-03-18T03:12:29.964Z,751.00
2023-03-18T03:13:30.016Z,748.00
2023-03-18T03:14:30.009Z,748.00
2023-03-18T03:15:30.094Z,747.00
2023-03-18T03:16:30.050Z,750.00
2023-03-18T03:17:30.049Z,751.00
2023-03-18T03:18:30.077Z,748.00
2023-03-18T03:19:30.094Z,751.00
2023-03-18T03:20:30.521Z,752.00
2023-03-18T03:21:30.162Z,749.00
2023-03-18T03:22:30.252Z,748.00
2023-03-18T03:23:30.238Z,749.00
2023-03-18T03:24:30.278Z,751.00
2023-03-18T03:25:30.298Z,751.00
2023-03-18T03:26:30.344Z,750.00
2023-03-18T03:27:30.386Z,750.00
2023-03-18T03:28:30.422Z,748.00
2023-03-18T03:29:31.428Z,748.00
2023-03-18T03:30:30.659Z,749.00
2023-03-18T03:31:30.549Z,750.00
2023-03-18T03:32:30.562Z,752.00
2023-03-18T03:33:30.544Z,751.00
2023-03-18T03:34:30.558Z,753.00
2023-03-18T03:35:30.604Z,752.00
2023-03-18T03:36:30.628Z,750.00
2023-03-18T03:37:30.667Z,750.00
2023-03-18T03:38:30.698Z,748.00
2023-03-18T03:39:30.721Z,745.00
2023-03-18T03:40:31.026Z,742.00
2023-03-18T03:41:30.776Z,742.00
2023-03-18T03:42:30.789Z,745.00
2023-03-18T03:43:30.827Z,742.00
2023-03-18T03:44:30.861Z,743.00
2023-03-18T03:45:30.894Z,742.00
2023-03-18T03:46:30.961Z,744.00
2023-03-18T03:47:30.995Z,745.00
2023-03-18T03:48:30.956Z,743.00
2023-03-18T03:49:30.988Z,744.00
2023-03-18T03:50:31.257Z,741.00
2023-03-18T03:51:31.061Z,742.00
2023-03-18T03:52:31.951Z,741.00
2023-03-18T03:53:31.057Z,737.00
2023-03-18T03:54:31.058Z,738.00
2023-03-18T03:55:31.146Z,738.00
2023-03-18T03:56:31.104Z,739.00
2023-03-18T03:57:31.097Z,738.00
2023-03-18T03:58:31.180Z,735.00
2023-03-18T03:59:31.130Z,738.00
2023-03-18T04:01:31.114Z,737.00
2023-03-18T04:02:31.142Z,736.00
2023-03-18T04:03:31.099Z,735.00
2023-03-18T04:04:31.187Z,730.00
2023-03-18T04:05:31.082Z,728.00
2023-03-18T04:06:31.099Z,730.00
2023-03-18T07:46:35.580Z,671.00
2023-03-18T07:57:34.979Z,672.00
2023-03-18T07:58:35.028Z,674.00
2023-03-18T07:59:35.084Z,673.00
2023-03-18T08:00:35.093Z,673.00
2023-03-18T08:12:49.449Z,665.00
2023-03-18T08:14:35.291Z,666.00
2023-03-18T08:15:35.499Z,666.00
2023-03-18T08:16:35.299Z,667.00
2023-03-18T08:17:35.242Z,668.00
2023-03-18T08:18:35.219Z,670.00
2023-03-18T08:19:35.291Z,669.00
2023-03-18T08:20:35.180Z,671.00
2023-03-18T08:21:35.156Z,672.00
2023-03-18T08:22:35.136Z,668.00
2023-03-18T08:23:35.122Z,665.00
2023-03-18T08:24:35.186Z,667.00
2023-03-18T08:25:35.552Z,666.00
2023-03-18T08:26:35.065Z,666.00
2023-03-18T08:27:35.049Z,665.00
2023-03-18T08:28:35.079Z,663.00
2023-03-18T08:29:35.549Z,661.00
2023-03-18T08:30:35.008Z,663.00
2023-03-18T08:31:35.069Z,664.00
2023-03-18T08:32:35.093Z,663.00
2023-03-18T08:34:35.067Z,663.00
2023-03-18T08:36:35.105Z,663.00
2023-03-18T08:37:35.089Z,664.00
2023-03-18T08:38:35.095Z,659.00
2023-03-18T08:39:35.101Z,658.00
2023-03-18T08:40:35.093Z,658.00
2023-03-18T08:41:35.097Z,657.00
2023-03-18T08:42:35.104Z,655.00
2023-03-18T08:44:35.101Z,658.00
2023-03-18T08:45:35.453Z,656.00
2023-03-18T08:46:35.097Z,656.00
2023-03-18T08:47:35.086Z,655.00
2023-03-18T08:48:35.086Z,657.00
2023-03-18T08:49:35.067Z,657.00
2023-03-18T08:50:35.057Z,657.00
2023-03-18T08:51:35.055Z,659.00
2023-03-18T08:52:35.046Z,661.00
2023-03-18T08:53:35.044Z,661.00
2023-03-18T08:54:35.030Z,657.00
2023-03-18T08:55:35.486Z,656.00
2023-03-18T08:56:35.105Z,656.00
2023-03-18T08:57:35.105Z,655.00
2023-03-18T08:58:34.997Z,655.00
2023-03-18T09:12:35.570Z,652.00
2023-03-18T09:18:35.667Z,658.00
2023-03-18T09:23:35.575Z,655.00
2023-03-18T09:55:35.082Z,653.00
2023-03-18T10:05:35.041Z,652.00
2023-03-18T10:06:35.032Z,653.00
2023-03-18T10:07:35.056Z,651.00
2023-03-18T10:08:36.299Z,650.00
2023-03-18T10:09:35.107Z,651.00
2023-03-18T10:10:35.140Z,650.00
2023-03-18T10:11:35.163Z,649.00
2023-03-18T10:12:35.204Z,649.00
2023-03-18T10:13:35.206Z,648.00
2023-03-18T10:14:36.398Z,650.00
2023-03-18T10:15:35.628Z,649.00
2023-03-18T10:16:35.295Z,647.00
2023-03-18T10:17:35.324Z,647.00
2023-03-18T10:18:35.351Z,649.00
2023-03-18T10:19:35.374Z,649.00
2023-03-18T10:20:35.393Z,648.00
2023-03-18T10:21:35.416Z,648.00
2023-03-18T10:22:35.446Z,651.00
2023-03-18T10:23:35.467Z,649.00
2023-03-18T10:24:35.501Z,649.00
2023-03-18T10:25:35.520Z,648.00
2023-03-18T10:26:35.564Z,648.00
2023-03-18T10:27:35.575Z,647.00
2023-03-18T10:28:36.589Z,648.00
2023-03-18T10:29:35.615Z,646.00
2023-03-18T10:30:35.634Z,648.00
2023-03-18T10:31:35.771Z,649.00
2023-03-18T10:32:46.916Z,646.00
2023-03-18T10:33:36.645Z,647.00
2023-03-18T10:34:35.602Z,646.00
2023-03-18T10:35:35.815Z,645.00
2023-03-18T10:36:35.531Z,648.00
2023-03-18T10:37:35.493Z,647.00
2023-03-18T10:38:35.456Z,646.00
2023-03-18T10:39:35.417Z,642.00
2023-03-18T10:40:35.388Z,640.00
2023-03-18T10:41:35.345Z,639.00
2023-03-18T10:42:35.346Z,639.00
2023-03-18T10:43:35.369Z,640.00
2023-03-18T10:44:35.381Z,642.00
2023-03-18T10:45:36.107Z,643.00
2023-03-18T10:46:35.681Z,643.00
2023-03-18T10:47:35.584Z,642.00
2023-03-18T10:48:35.487Z,642.00
2023-03-18T10:49:35.510Z,641.00
2023-03-18T10:50:35.858Z,640.00
2023-03-18T10:51:36.112Z,640.00
2023-03-18T10:52:35.563Z,640.00
2023-03-18T10:53:35.586Z,640.00
2023-03-18T10:54:35.621Z,642.00
2023-03-18T10:55:35.639Z,642.00
2023-03-18T10:56:35.658Z,641.00
2023-03-18T10:57:35.758Z,639.00
2023-03-18T10:58:35.715Z,636.00
2023-03-18T10:59:35.726Z,639.00
2023-03-18T11:00:36.258Z,637.00
2023-03-18T11:01:35.802Z,635.00
2023-03-18T11:02:35.880Z,636.00
2023-03-18T11:03:36.607Z,641.00
2023-03-18T11:04:35.908Z,640.00
2023-03-18T11:05:35.889Z,641.00
2023-03-18T11:06:35.914Z,639.00
2023-03-18T11:07:35.943Z,639.00
2023-03-18T11:08:35.968Z,639.00
2023-03-18T11:09:36.061Z,638.00
2023-03-18T11:10:36.353Z,639.00
2023-03-18T11:11:36.062Z,637.00
2023-03-18T11:12:36.072Z,637.00
2023-03-18T11:13:36.100Z,636.00
2023-03-18T11:14:36.131Z,637.00
2023-03-18T11:15:36.172Z,637.00
2023-03-18T11:16:36.185Z,639.00
2023-03-18T11:17:36.204Z,640.00
2023-03-18T11:18:36.237Z,637.00
2023-03-18T11:19:36.255Z,633.00
2023-03-18T11:20:36.281Z,633.00
2023-03-18T11:21:36.316Z,631.00
2023-03-18T11:22:36.342Z,631.00
2023-03-18T11:23:36.368Z,633.00
2023-03-18T11:24:36.607Z,633.00
2023-03-18T11:25:36.441Z,634.00
2023-03-18T11:26:36.470Z,634.00
2023-03-18T11:27:36.550Z,633.00
2023-03-18T11:28:36.553Z,632.00
2023-03-18T11:29:36.569Z,631.00
2023-03-18T11:30:36.770Z,631.00
2023-03-18T11:31:36.673Z,631.00
2023-03-18T11:32:36.654Z,632.00
2023-03-18T11:33:36.690Z,631.00
2023-03-18T11:34:36.708Z,631.00
2023-03-18T11:35:36.778Z,632.00
2023-03-18T11:36:36.780Z,630.00
2023-03-18T11:37:36.810Z,631.00
2023-03-18T11:38:36.866Z,633.00
2023-03-18T11:39:36.886Z,633.00
2023-03-18T11:40:36.939Z,636.00
2023-03-18T11:41:36.962Z,637.00
2023-03-18T11:42:36.990Z,638.00
2023-03-18T11:43:37.039Z,637.00
2023-03-18T11:44:37.066Z,638.00
2023-03-18T11:45:37.107Z,637.00
2023-03-18T11:46:37.170Z,634.00
2023-03-18T11:47:37.186Z,632.00
2023-03-18T11:48:37.234Z,630.00
2023-03-18T11:49:37.283Z,628.00
2023-03-18T11:50:37.326Z,628.00
2023-03-18T11:51:37.366Z,628.00
2023-03-18T11:52:37.406Z,629.00
2023-03-18T11:53:37.445Z,629.00
2023-03-18T11:54:37.630Z,629.00
2023-03-18T11:55:37.545Z,628.00
2023-03-18T11:56:37.575Z,629.00
2023-03-18T11:57:37.660Z,630.00
2023-03-18T11:58:37.675Z,627.00
2023-03-18T11:59:37.799Z,630.00
2023-03-18T12:00:37.780Z,630.00
2023-03-18T12:01:37.861Z,630.00
2023-03-18T12:02:37.859Z,631.00
2023-03-18T12:03:37.792Z,629.00
2023-03-18T12:04:37.842Z,627.00
2023-03-18T12:05:37.883Z,626.00
2023-03-18T12:06:37.789Z,627.00
2023-03-18T12:07:38.475Z,628.00
2023-03-18T12:08:37.799Z,626.00
2023-03-18T12:09:37.756Z,627.00
2023-03-18T12:10:37.746Z,626.00
2023-03-18T12:11:37.719Z,626.00
2023-03-18T12:12:37.692Z,626.00
2023-03-18T12:13:37.833Z,626.00
2023-03-18T12:14:37.649Z,629.00
2023-03-18T12:15:38.143Z,628.00
2023-03-18T12:16:37.625Z,629.00
2023-03-18T12:17:37.582Z,628.00
2023-03-18T12:18:37.590Z,629.00
2023-03-18T12:19:37.536Z,630.00
2023-03-18T12:20:37.568Z,630.00
2023-03-18T12:21:37.516Z,632.00
2023-03-18T12:22:37.487Z,631.00
2023-03-18T12:23:37.512Z,629.00
2023-03-18T12:24:37.482Z,628.00
2023-03-18T12:25:37.474Z,627.00
2023-03-18T12:26:37.469Z,624.00
2023-03-18T12:27:37.451Z,625.00
2023-03-18T12:28:37.423Z,627.00
2023-03-18T12:29:37.414Z,627.00
2023-03-18T12:30:37.373Z,628.00
2023-03-18T12:31:37.417Z,629.00
2023-03-18T12:32:37.358Z,629.00
2023-03-18T12:33:37.281Z,631.00
2023-03-18T12:34:37.252Z,629.00
2023-03-18T12:35:37.511Z,627.00
2023-03-18T12:36:37.259Z,630.00
2023-03-18T12:37:37.164Z,630.00
2023-03-18T12:38:37.651Z,629.00
2023-03-18T12:39:37.109Z,627.00
2023-03-18T12:40:37.097Z,625.00
2023-03-18T12:41:37.393Z,623.00
2023-03-18T12:42:37.032Z,622.00
2023-03-18T12:43:37.003Z,624.00
2023-03-18T12:44:36.979Z,623.00
2023-03-18T12:45:37.047Z,623.00
2023-03-18T12:46:36.916Z,622.00
2023-03-18T12:47:37.363Z,622.00
2023-03-18T12:48:44.018Z,623.00
2023-03-18T12:49:37.829Z,626.00
2023-03-18T12:50:36.866Z,626.00
2023-03-18T12:51:36.766Z,626.00
2023-03-18T12:52:36.729Z,629.00
2023-03-18T12:53:36.691Z,627.00
2023-03-18T12:54:36.670Z,625.00
2023-03-18T12:55:36.625Z,628.00
2023-03-18T12:56:36.606Z,629.00
2023-03-18T12:57:36.551Z,630.00
2023-03-18T12:58:36.533Z,629.00
2023-03-18T12:59:36.507Z,627.00
2023-03-18T13:00:36.678Z,623.00
2023-03-18T13:01:36.497Z,622.00
2023-03-18T13:02:36.429Z,624.00
2023-03-18T13:03:36.365Z,628.00
2023-03-18T13:04:36.333Z,629.00
2023-03-18T13:05:36.297Z,626.00
2023-03-18T13:06:36.263Z,625.00
2023-03-18T13:07:36.252Z,624.00
2023-03-18T13:08:37.167Z,622.00
2023-03-18T13:09:36.178Z,621.00
2023-03-18T13:10:36.148Z,620.00
2023-03-18T13:11:36.121Z,621.00
2023-03-18T13:12:36.098Z,621.00
2023-03-18T13:13:36.163Z,620.00
2023-03-18T13:14:38.897Z,619.00
2023-03-18T13:15:36.006Z,619.00
2023-03-18T13:16:35.991Z,622.00
2023-03-18T13:17:35.938Z,623.00
2023-03-18T13:18:35.913Z,624.00
2023-03-18T13:19:35.880Z,623.00
2023-03-18T13:20:35.838Z,624.00
2023-03-18T13:21:35.814Z,626.00
2023-03-18T13:22:35.778Z,627.00
2023-03-18T13:23:35.740Z,627.00
2023-03-18T13:24:35.711Z,624.00
2023-03-18T13:25:35.671Z,627.00
2023-03-18T13:26:35.632Z,628.00
2023-03-18T13:27:35.583Z,628.00
2023-03-18T13:28:35.544Z,627.00
2023-03-18T13:29:35.505Z,627.00
2023-03-18T13:30:35.867Z,622.00
2023-03-18T13:31:35.449Z,623.00
2023-03-18T13:32:35.446Z,626.00
2023-03-18T13:33:35.371Z,628.00
2023-03-18T13:34:35.342Z,628.00
2023-03-18T13:35:35.346Z,626.00
2023-03-18T13:36:35.261Z,627.00
2023-03-18T13:37:35.231Z,630.00
2023-03-18T13:38:35.210Z,634.00
2023-03-18T13:39:35.165Z,635.00
2023-03-18T13:40:35.120Z,633.00
2023-03-18T13:41:35.100Z,628.00
2023-03-18T13:42:35.066Z,626.00
2023-03-18T13:43:35.105Z,629.00
2023-03-18T13:44:35.008Z,628.00
2023-03-18T13:52:34.740Z,626.00
2023-03-18T13:53:34.718Z,625.00
2023-03-18T13:54:34.688Z,623.00
2023-03-18T13:55:34.958Z,623.00
2023-03-18T13:56:34.626Z,624.00
2023-03-18T13:57:34.600Z,623.00
2023-03-18T13:58:34.616Z,623.00
2023-03-18T13:59:34.534Z,623.00
2023-03-18T14:00:34.510Z,624.00
2023-03-18T14:01:34.544Z,623.00
2023-03-18T14:02:34.509Z,625.00
2023-03-18T14:03:34.469Z,627.00
2023-03-18T14:04:34.372Z,627.00
2023-03-18T14:05:34.727Z,626.00
2023-03-18T14:06:34.324Z,626.00
2023-03-18T14:07:34.683Z,623.00
2023-03-18T14:08:34.274Z,622.00
2023-03-18T14:09:34.263Z,623.00
2023-03-18T14:10:34.234Z,624.00
2023-03-18T14:11:34.217Z,621.00
2023-03-18T14:12:34.203Z,621.00
2023-03-18T14:13:34.189Z,623.00
2023-03-18T14:14:34.172Z,623.00
2023-03-18T14:15:34.579Z,624.00
2023-03-18T14:16:34.227Z,623.00
2023-03-18T14:17:34.118Z,624.00
2023-03-18T14:18:34.104Z,623.00
2023-03-18T14:19:34.097Z,622.00
2023-03-18T14:20:34.072Z,622.00
2023-03-18T14:21:34.057Z,621.00
2023-03-18T14:22:34.040Z,619.00
2023-03-18T14:23:34.018Z,618.00
2023-03-18T14:24:34.012Z,618.00
2023-03-18T14:25:34.249Z,620.00
2023-03-18T14:26:33.968Z,619.00
2023-03-18T14:27:34.031Z,617.00
2023-03-18T14:28:33.933Z,618.00
2023-03-18T14:29:33.901Z,620.00
2023-03-18T14:30:33.883Z,622.00
2023-03-18T14:31:33.898Z,620.00
2023-03-18T14:32:34.400Z,618.00
2023-03-18T14:33:33.774Z,616.00
2023-03-18T14:34:33.753Z,614.00
2023-03-18T14:35:33.996Z,616.00
2023-03-18T14:36:33.743Z,614.00
2023-03-18T14:37:33.661Z,615.00
2023-03-18T14:38:33.768Z,617.00
2023-03-18T14:39:33.614Z,620.00
2023-03-18T14:40:33.680Z,621.00
2023-03-18T14:41:33.558Z,619.00
2023-03-18T14:42:33.531Z,623.00
2023-03-18T14:43:33.494Z,622.00
2023-03-18T14:44:33.465Z,622.00
2023-03-18T14:45:33.697Z,621.00
2023-03-18T14:46:33.437Z,620.00
2023-03-18T14:47:39.048Z,616.00
2023-03-18T14:48:34.350Z,614.00
2023-03-18T14:49:33.322Z,614.00
2023-03-18T14:50:33.286Z,614.00
2023-03-18T14:51:33.330Z,612.00
2023-03-18T14:52:33.297Z,610.00
2023-03-18T14:53:33.209Z,613.00
2023-03-18T14:54:33.159Z,612.00
2023-03-18T14:55:33.367Z,611.00
2023-03-18T14:56:33.112Z,610.00
2023-03-18T14:57:33.117Z,609.00
2023-03-18T14:58:33.709Z,609.00
2023-03-18T14:59:33.030Z,605.00
2023-03-18T15:00:33.050Z,605.00
2023-03-18T15:01:33.046Z,606.00
2023-03-18T15:02:32.955Z,605.00
2023-03-18T15:03:32.901Z,607.00
2023-03-18T15:04:33.703Z,609.00
2023-03-18T15:05:32.964Z,610.00
2023-03-18T15:06:32.810Z,610.00
2023-03-18T15:07:32.793Z,613.00
2023-03-18T15:08:46.770Z,614.00
2023-03-18T19:38:35.327Z,594.00
2023-03-18T19:44:35.332Z,590.00
2023-03-18T19:49:35.013Z,596.00
2023-03-18T19:50:35.032Z,598.00
2023-03-18T19:51:35.066Z,599.00
2023-03-18T19:52:35.102Z,600.00
2023-03-18T19:53:35.148Z,599.00
2023-03-18T19:54:35.178Z,597.00
2023-03-18T19:55:35.215Z,596.00
2023-03-18T19:56:35.292Z,598.00
2023-03-18T19:57:35.286Z,602.00
2023-03-18T19:58:35.342Z,599.00
2023-03-18T19:59:39.692Z,599.00
2023-03-18T20:00:35.330Z,598.00
2023-03-18T20:01:35.316Z,595.00
2023-03-18T20:02:35.316Z,594.00
2023-03-18T20:03:35.267Z,594.00
2023-03-18T20:04:35.308Z,593.00
2023-03-18T20:05:35.530Z,593.00
2023-03-18T20:06:35.252Z,593.00
2023-03-18T20:07:35.159Z,591.00
2023-03-18T20:08:35.195Z,591.00
2023-03-18T20:09:35.109Z,593.00
2023-03-18T20:10:35.089Z,590.00
2023-03-18T20:11:35.064Z,588.00
2023-03-18T20:12:35.040Z,592.00
2023-03-18T20:13:35.410Z,594.00
2023-03-18T20:14:34.992Z,596.00
2023-03-18T20:18:35.005Z,590.00
2023-03-18T20:19:35.045Z,589.00
2023-03-18T20:20:35.072Z,592.00
2023-03-18T20:21:35.121Z,590.00
2023-03-18T20:22:35.150Z,591.00
2023-03-18T20:23:35.197Z,592.00
2023-03-18T20:24:35.244Z,592.00
2023-03-18T20:25:35.686Z,590.00
2023-03-18T20:26:35.323Z,587.00
2023-03-18T20:27:35.360Z,585.00
2023-03-18T20:28:35.400Z,585.00
2023-03-18T20:29:35.438Z,586.00
2023-03-18T20:30:35.481Z,589.00
2023-03-18T20:31:35.566Z,591.00
2023-03-18T20:32:35.596Z,590.00
2023-03-18T20:33:35.611Z,589.00
2023-03-18T20:34:35.650Z,590.00
2023-03-18T20:35:36.302Z,591.00
2023-03-18T20:36:35.747Z,592.00
2023-03-18T20:37:35.783Z,588.00
2023-03-18T20:38:35.858Z,588.00
2023-03-18T20:39:35.881Z,588.00
2023-03-18T20:40:35.929Z,590.00
2023-03-18T20:41:35.980Z,590.00
2023-03-18T20:42:36.028Z,591.00
2023-03-18T20:43:36.067Z,591.00
2023-03-18T20:44:36.115Z,594.00
2023-03-18T20:45:36.795Z,592.00
2023-03-18T20:46:36.282Z,596.00
2023-03-18T20:47:36.253Z,595.00
2023-03-18T20:48:36.292Z,595.00
2023-03-18T20:49:36.340Z,594.00
2023-03-18T20:50:36.374Z,597.00
2023-03-18T20:51:36.515Z,600.00
2023-03-18T20:52:36.449Z,599.00
2023-03-18T20:53:37.407Z,599.00
2023-03-18T20:54:36.531Z,597.00
2023-03-18T20:55:36.572Z,597.00
2023-03-18T20:56:36.618Z,598.00
2023-03-18T20:57:36.661Z,598.00
2023-03-18T20:58:36.687Z,597.00
2023-03-18T20:59:37.340Z,596.00
2023-03-18T21:00:36.748Z,593.00
2023-03-18T21:01:36.798Z,594.00
2023-03-18T21:02:36.829Z,593.00
2023-03-18T21:03:36.860Z,592.00
2023-03-18T21:04:36.897Z,592.00
2023-03-18T21:05:36.937Z,591.00
2023-03-18T21:06:36.983Z,591.00
2023-03-18T21:07:37.044Z,591.00
2023-03-18T21:08:37.097Z,591.00
2023-03-18T21:09:37.133Z,591.00
2023-03-18T21:10:37.193Z,590.00
2023-03-18T21:11:37.219Z,593.00
2023-03-18T21:12:37.267Z,594.00
2023-03-18T21:13:37.287Z,596.00
2023-03-18T21:14:37.339Z,596.00
2023-03-18T23:00:39.624Z,578.00
2023-03-18T23:01:39.668Z,580.00
2023-03-18T23:02:39.691Z,579.00
2023-03-18T23:03:39.679Z,580.00
2023-03-18T23:04:39.709Z,578.00
2023-03-18T23:05:39.724Z,576.00
2023-03-18T23:06:39.801Z,573.00
2023-03-18T23:07:39.762Z,571.00
2023-03-18T23:08:39.776Z,573.00
2023-03-18T23:09:54.115Z,571.00
2023-03-18T23:11:39.772Z,576.00
2023-03-18T23:12:39.740Z,575.00
2023-03-18T23:13:39.709Z,572.00
2023-03-18T23:14:39.688Z,570.00
2023-03-18T23:15:39.650Z,570.00
2023-03-18T23:16:39.684Z,569.00
